sensor_id;sensor_type;location;lat;lon;timestamp;P1;durP1;ratioP1;P2;durP2;ratioP2
25479;SDS011;13393;49.378;8.686;2023-05-07T00:00:49;2.05;;;1.10;;
25479;SDS011;13393;49.378;8.686;2023-05-07T00:03:16;1.55;;;1.10;;
25479;SDS011;13393;49.378;8.686;2023-05-07T00:05:44;1.10;;;1.00;;
25479;SDS011;13393;49.378;8.686;2023-05-07T00:08:10;1.40;;;0.93;;
25479;SDS011;13393;49.378;8.686;2023-05-07T00:10:38;1.58;;;1.10;;
25479;SDS011;13393;49.378;8.686;2023-05-07T00:13:04;1.30;;;1.20;;
25479;SDS011;13393;49.378;8.686;2023-05-07T00:15:31;2.35;;;1.17;;
25479;SDS011;13393;49.378;8.686;2023-05-07T00:17:57;1.40;;;1.30;;
25479;SDS011;13393;49.378;8.686;2023-05-07T00:20:24;3.38;;;1.10;;
25479;SDS011;13393;49.378;8.686;2023-05-07T00:22:50;0.90;;;0.90;;
25479;SDS011;13393;49.378;8.686;2023-05-07T00:25:17;1.20;;;1.08;;
25479;SDS011;13393;49.378;8.686;2023-05-07T00:27:45;2.05;;;1.10;;
25479;SDS011;13393;49.378;8.686;2023-05-07T00:30:12;2.55;;;1.30;;
25479;SDS011;13393;49.378;8.686;2023-05-07T00:32:38;4.38;;;1.25;;
25479;SDS011;13393;49.378;8.686;2023-05-07T00:35:05;1.58;;;1.15;;
25479;SDS011;13393;49.378;8.686;2023-05-07T00:37:32;1.25;;;1.15;;
25479;SDS011;13393;49.378;8.686;2023-05-07T00:39:58;1.33;;;1.15;;
25479;SDS011;13393;49.378;8.686;2023-05-07T00:42:25;1.45;;;0.90;;
25479;SDS011;13393;49.378;8.686;2023-05-07T00:44:52;2.15;;;1.10;;
25479;SDS011;13393;49.378;8.686;2023-05-07T00:47:20;2.65;;;1.42;;
25479;SDS011;13393;49.378;8.686;2023-05-07T00:49:46;1.52;;;1.10;;
25479;SDS011;13393;49.378;8.686;2023-05-07T00:52:13;1.20;;;1.10;;
25479;SDS011;13393;49.378;8.686;2023-05-07T00:54:40;1.35;;;1.17;;
25479;SDS011;13393;49.378;8.686;2023-05-07T00:57:07;2.67;;;1.20;;
25479;SDS011;13393;49.378;8.686;2023-05-07T00:59:34;1.30;;;1.10;;
25479;SDS011;13393;49.378;8.686;2023-05-07T01:02:02;3.53;;;1.20;;
25479;SDS011;13393;49.378;8.686;2023-05-07T01:04:28;2.00;;;1.10;;
25479;SDS011;13393;49.378;8.686;2023-05-07T01:06:55;3.00;;;1.45;;
25479;SDS011;13393;49.378;8.686;2023-05-07T01:09:22;1.00;;;1.00;;
25479;SDS011;13393;49.378;8.686;2023-05-07T01:11:49;2.80;;;1.30;;
25479;SDS011;13393;49.378;8.686;2023-05-07T01:14:16;1.83;;;1.10;;
25479;SDS011;13393;49.378;8.686;2023-05-07T01:16:43;1.20;;;0.93;;
25479;SDS011;13393;49.378;8.686;2023-05-07T01:19:12;1.30;;;1.20;;
25479;SDS011;13393;49.378;8.686;2023-05-07T01:21:41;1.42;;;1.08;;
25479;SDS011;13393;49.378;8.686;2023-05-07T01:24:11;1.20;;;1.10;;
25479;SDS011;13393;49.378;8.686;2023-05-07T01:26:38;0.98;;;0.93;;
25479;SDS011;13393;49.378;8.686;2023-05-07T01:29:05;1.23;;;1.00;;
25479;SDS011;13393;49.378;8.686;2023-05-07T01:31:31;2.83;;;1.08;;
25479;SDS011;13393;49.378;8.686;2023-05-07T01:33:58;1.15;;;1.00;;
25479;SDS011;13393;49.378;8.686;2023-05-07T01:36:25;1.33;;;1.23;;
25479;SDS011;13393;49.378;8.686;2023-05-07T01:38:52;3.70;;;1.15;;
25479;SDS011;13393;49.378;8.686;2023-05-07T01:41:20;1.95;;;1.00;;
25479;SDS011;13393;49.378;8.686;2023-05-07T01:43:50;3.47;;;1.20;;
25479;SDS011;13393;49.378;8.686;2023-05-07T01:46:17;2.05;;;1.10;;
25479;SDS011;13393;49.378;8.686;2023-05-07T01:48:43;1.05;;;0.95;;
25479;SDS011;13393;49.378;8.686;2023-05-07T01:51:11;3.10;;;1.17;;
25479;SDS011;13393;49.378;8.686;2023-05-07T01:53:37;2.53;;;1.15;;
25479;SDS011;13393;49.378;8.686;2023-05-07T01:56:04;1.95;;;1.25;;
25479;SDS011;13393;49.378;8.686;2023-05-07T01:58:32;1.83;;;1.10;;
25479;SDS011;13393;49.378;8.686;2023-05-07T02:00:58;1.35;;;0.90;;
25479;SDS011;13393;49.378;8.686;2023-05-07T02:03:25;1.65;;;1.15;;
25479;SDS011;13393;49.378;8.686;2023-05-07T02:05:51;1.00;;;1.00;;
25479;SDS011;13393;49.378;8.686;2023-05-07T02:08:18;1.40;;;1.05;;
25479;SDS011;13393;49.378;8.686;2023-05-07T02:10:44;1.45;;;1.00;;
25479;SDS011;13393;49.378;8.686;2023-05-07T02:13:10;2.35;;;1.20;;
25479;SDS011;13393;49.378;8.686;2023-05-07T02:15:38;2.92;;;1.35;;
25479;SDS011;13393;49.378;8.686;2023-05-07T02:18:05;1.38;;;1.13;;
25479;SDS011;13393;49.378;8.686;2023-05-07T02:20:31;1.58;;;1.15;;
25479;SDS011;13393;49.378;8.686;2023-05-07T02:22:58;1.70;;;1.10;;
25479;SDS011;13393;49.378;8.686;2023-05-07T02:25:25;1.60;;;1.13;;
25479;SDS011;13393;49.378;8.686;2023-05-07T02:27:51;2.42;;;1.10;;
25479;SDS011;13393;49.378;8.686;2023-05-07T02:30:18;1.92;;;1.20;;
25479;SDS011;13393;49.378;8.686;2023-05-07T02:32:47;2.05;;;1.20;;
25479;SDS011;13393;49.378;8.686;2023-05-07T02:35:13;1.85;;;1.00;;
25479;SDS011;13393;49.378;8.686;2023-05-07T02:37:40;1.35;;;1.17;;
25479;SDS011;13393;49.378;8.686;2023-05-07T02:40:06;1.80;;;1.25;;
25479;SDS011;13393;49.378;8.686;2023-05-07T02:42:33;1.20;;;1.10;;
25479;SDS011;13393;49.378;8.686;2023-05-07T02:44:59;2.45;;;1.17;;
25479;SDS011;13393;49.378;8.686;2023-05-07T02:47:26;1.48;;;1.20;;
25479;SDS011;13393;49.378;8.686;2023-05-07T02:49:55;1.23;;;1.10;;
25479;SDS011;13393;49.378;8.686;2023-05-07T02:52:21;2.13;;;1.30;;
25479;SDS011;13393;49.378;8.686;2023-05-07T02:54:48;1.10;;;1.00;;
25479;SDS011;13393;49.378;8.686;2023-05-07T02:57:14;1.55;;;1.10;;
25479;SDS011;13393;49.378;8.686;2023-05-07T02:59:41;3.80;;;1.00;;
25479;SDS011;13393;49.378;8.686;2023-05-07T03:02:07;1.27;;;1.00;;
25479;SDS011;13393;49.378;8.686;2023-05-07T03:04:33;4.20;;;1.55;;
25479;SDS011;13393;49.378;8.686;2023-05-07T03:07:01;1.25;;;1.15;;
25479;SDS011;13393;49.378;8.686;2023-05-07T03:09:28;2.97;;;1.60;;
25479;SDS011;13393;49.378;8.686;2023-05-07T03:11:54;1.75;;;1.38;;
25479;SDS011;13393;49.378;8.686;2023-05-07T03:14:20;4.50;;;1.48;;
25479;SDS011;13393;49.378;8.686;2023-05-07T03:16:47;1.55;;;1.45;;
25479;SDS011;13393;49.378;8.686;2023-05-07T03:19:13;3.50;;;1.70;;
25479;SDS011;13393;49.378;8.686;2023-05-07T03:21:39;1.60;;;1.50;;
25479;SDS011;13393;49.378;8.686;2023-05-07T03:24:07;2.78;;;1.83;;
25479;SDS011;13393;49.378;8.686;2023-05-07T03:26:33;3.05;;;2.00;;
25479;SDS011;13393;49.378;8.686;2023-05-07T03:29:00;4.35;;;2.00;;
25479;SDS011;13393;49.378;8.686;2023-05-07T03:31:26;2.42;;;1.80;;
25479;SDS011;13393;49.378;8.686;2023-05-07T03:33:53;2.20;;;2.00;;
25479;SDS011;13393;49.378;8.686;2023-05-07T03:36:20;4.78;;;2.38;;
25479;SDS011;13393;49.378;8.686;2023-05-07T03:38:46;2.00;;;1.80;;
25479;SDS011;13393;49.378;8.686;2023-05-07T03:41:14;2.80;;;2.30;;
25479;SDS011;13393;49.378;8.686;2023-05-07T03:43:40;3.42;;;2.13;;
25479;SDS011;13393;49.378;8.686;2023-05-07T03:46:07;3.83;;;2.88;;
25479;SDS011;13393;49.378;8.686;2023-05-07T03:48:33;5.05;;;2.50;;
25479;SDS011;13393;49.378;8.686;2023-05-07T03:51:00;3.85;;;3.08;;
25479;SDS011;13393;49.378;8.686;2023-05-07T03:53:26;6.65;;;3.13;;
25479;SDS011;13393;49.378;8.686;2023-05-07T03:55:52;6.35;;;2.38;;
25479;SDS011;13393;49.378;8.686;2023-05-07T03:58:20;3.80;;;2.80;;
25479;SDS011;13393;49.378;8.686;2023-05-07T04:00:46;3.97;;;3.05;;
25479;SDS011;13393;49.378;8.686;2023-05-07T04:03:13;4.78;;;2.58;;
25479;SDS011;13393;49.378;8.686;2023-05-07T04:05:40;4.38;;;3.08;;
25479;SDS011;13393;49.378;8.686;2023-05-07T04:08:06;5.78;;;2.90;;
25479;SDS011;13393;49.378;8.686;2023-05-07T04:10:33;4.57;;;3.20;;
25479;SDS011;13393;49.378;8.686;2023-05-07T04:12:59;6.32;;;3.50;;
25479;SDS011;13393;49.378;8.686;2023-05-07T04:15:27;3.15;;;2.90;;
25479;SDS011;13393;49.378;8.686;2023-05-07T04:17:53;3.85;;;3.47;;
25479;SDS011;13393;49.378;8.686;2023-05-07T04:20:19;6.13;;;3.40;;
25479;SDS011;13393;49.378;8.686;2023-05-07T04:22:46;3.83;;;3.42;;
25479;SDS011;13393;49.378;8.686;2023-05-07T04:25:12;4.25;;;3.20;;
25479;SDS011;13393;49.378;8.686;2023-05-07T04:27:38;4.55;;;3.38;;
25479;SDS011;13393;49.378;8.686;2023-05-07T04:30:05;5.22;;;3.70;;
25479;SDS011;13393;49.378;8.686;2023-05-07T04:32:33;3.97;;;3.58;;
25479;SDS011;13393;49.378;8.686;2023-05-07T04:35:01;4.25;;;3.47;;
25479;SDS011;13393;49.378;8.686;2023-05-07T04:37:27;3.67;;;3.25;;
25479;SDS011;13393;49.378;8.686;2023-05-07T04:39:54;5.05;;;3.50;;
25479;SDS011;13393;49.378;8.686;2023-05-07T04:42:20;3.90;;;3.50;;
25479;SDS011;13393;49.378;8.686;2023-05-07T04:44:46;7.82;;;3.92;;
25479;SDS011;13393;49.378;8.686;2023-05-07T04:47:13;7.00;;;4.10;;
25479;SDS011;13393;49.378;8.686;2023-05-07T04:49:40;4.55;;;3.50;;
25479;SDS011;13393;49.378;8.686;2023-05-07T04:52:07;4.13;;;3.35;;
25479;SDS011;13393;49.378;8.686;2023-05-07T04:54:33;6.57;;;3.30;;
25479;SDS011;13393;49.378;8.686;2023-05-07T04:57:00;6.40;;;3.83;;
25479;SDS011;13393;49.378;8.686;2023-05-07T04:59:26;5.55;;;4.65;;
25479;SDS011;13393;49.378;8.686;2023-05-07T05:01:53;3.70;;;3.25;;
25479;SDS011;13393;49.378;8.686;2023-05-07T05:04:19;5.22;;;3.63;;
25479;SDS011;13393;49.378;8.686;2023-05-07T05:06:47;4.70;;;3.65;;
25479;SDS011;13393;49.378;8.686;2023-05-07T05:09:13;4.38;;;3.60;;
25479;SDS011;13393;49.378;8.686;2023-05-07T05:11:41;4.07;;;3.33;;
25479;SDS011;13393;49.378;8.686;2023-05-07T05:14:07;5.45;;;3.38;;
25479;SDS011;13393;49.378;8.686;2023-05-07T05:16:33;7.35;;;3.78;;
25479;SDS011;13393;49.378;8.686;2023-05-07T05:19:01;6.00;;;3.50;;
25479;SDS011;13393;49.378;8.686;2023-05-07T05:21:27;5.45;;;3.58;;
25479;SDS011;13393;49.378;8.686;2023-05-07T05:23:55;3.50;;;3.20;;
25479;SDS011;13393;49.378;8.686;2023-05-07T05:26:21;4.57;;;3.13;;
25479;SDS011;13393;49.378;8.686;2023-05-07T05:28:48;4.20;;;3.42;;
25479;SDS011;13393;49.378;8.686;2023-05-07T05:31:14;6.00;;;3.47;;
25479;SDS011;13393;49.378;8.686;2023-05-07T05:33:40;5.53;;;2.92;;
25479;SDS011;13393;49.378;8.686;2023-05-07T05:36:09;3.78;;;3.38;;
25479;SDS011;13393;49.378;8.686;2023-05-07T05:38:35;3.95;;;3.08;;
25479;SDS011;13393;49.378;8.686;2023-05-07T05:41:03;4.80;;;2.97;;
25479;SDS011;13393;49.378;8.686;2023-05-07T05:43:29;3.30;;;3.00;;
25479;SDS011;13393;49.378;8.686;2023-05-07T05:45:56;4.25;;;3.30;;
25479;SDS011;13393;49.378;8.686;2023-05-07T05:48:22;4.78;;;3.30;;
25479;SDS011;13393;49.378;8.686;2023-05-07T05:50:49;4.15;;;2.60;;
25479;SDS011;13393;49.378;8.686;2023-05-07T05:53:15;3.58;;;2.95;;
25479;SDS011;13393;49.378;8.686;2023-05-07T05:55:41;2.83;;;2.17;;
25479;SDS011;13393;49.378;8.686;2023-05-07T05:58:10;2.80;;;2.30;;
25479;SDS011;13393;49.378;8.686;2023-05-07T06:00:36;4.20;;;2.03;;
25479;SDS011;13393;49.378;8.686;2023-05-07T06:03:02;3.35;;;2.25;;
25479;SDS011;13393;49.378;8.686;2023-05-07T06:05:29;3.63;;;2.25;;
25479;SDS011;13393;49.378;8.686;2023-05-07T06:07:55;2.85;;;2.20;;
25479;SDS011;13393;49.378;8.686;2023-05-07T06:10:22;2.30;;;1.80;;
25479;SDS011;13393;49.378;8.686;2023-05-07T06:12:49;4.30;;;1.88;;
25479;SDS011;13393;49.378;8.686;2023-05-07T06:15:16;1.67;;;1.58;;
25479;SDS011;13393;49.378;8.686;2023-05-07T06:17:43;2.20;;;1.40;;
25479;SDS011;13393;49.378;8.686;2023-05-07T06:20:11;4.53;;;1.85;;
25479;SDS011;13393;49.378;8.686;2023-05-07T06:22:37;3.03;;;1.77;;
25479;SDS011;13393;49.378;8.686;2023-05-07T06:25:04;2.53;;;1.70;;
25479;SDS011;13393;49.378;8.686;2023-05-07T06:27:31;2.97;;;1.80;;
25479;SDS011;13393;49.378;8.686;2023-05-07T06:29:57;3.10;;;1.90;;
25479;SDS011;13393;49.378;8.686;2023-05-07T06:32:25;2.35;;;1.88;;
25479;SDS011;13393;49.378;8.686;2023-05-07T06:34:51;3.70;;;2.22;;
25479;SDS011;13393;49.378;8.686;2023-05-07T06:37:18;3.30;;;2.35;;
25479;SDS011;13393;49.378;8.686;2023-05-07T06:39:44;4.35;;;2.92;;
25479;SDS011;13393;49.378;8.686;2023-05-07T06:42:11;3.30;;;2.80;;
25479;SDS011;13393;49.378;8.686;2023-05-07T06:44:37;5.05;;;2.50;;
25479;SDS011;13393;49.378;8.686;2023-05-07T06:47:03;4.00;;;3.60;;
25479;SDS011;13393;49.378;8.686;2023-05-07T06:49:31;5.50;;;3.50;;
25479;SDS011;13393;49.378;8.686;2023-05-07T06:51:58;3.53;;;3.08;;
25479;SDS011;13393;49.378;8.686;2023-05-07T06:54:24;5.55;;;3.25;;
25479;SDS011;13393;49.378;8.686;2023-05-07T06:56:51;6.50;;;3.20;;
25479;SDS011;13393;49.378;8.686;2023-05-07T06:59:17;6.03;;;3.33;;
25479;SDS011;13393;49.378;8.686;2023-05-07T07:01:44;3.33;;;2.65;;
25479;SDS011;13393;49.378;8.686;2023-05-07T07:04:10;4.63;;;3.20;;
25479;SDS011;13393;49.378;8.686;2023-05-07T07:06:38;4.07;;;3.60;;
25479;SDS011;13393;49.378;8.686;2023-05-07T07:09:07;4.00;;;3.20;;
25479;SDS011;13393;49.378;8.686;2023-05-07T07:11:36;3.58;;;2.97;;
25479;SDS011;13393;49.378;8.686;2023-05-07T07:14:02;3.70;;;3.30;;
25479;SDS011;13393;49.378;8.686;2023-05-07T07:16:30;7.05;;;3.35;;
25479;SDS011;13393;49.378;8.686;2023-05-07T07:18:56;5.18;;;3.10;;
25479;SDS011;13393;49.378;8.686;2023-05-07T07:21:22;5.18;;;3.08;;
25479;SDS011;13393;49.378;8.686;2023-05-07T07:23:50;3.45;;;3.00;;
25479;SDS011;13393;49.378;8.686;2023-05-07T07:26:17;5.10;;;3.28;;
25479;SDS011;13393;49.378;8.686;2023-05-07T07:28:46;11.38;;;3.40;;
25479;SDS011;13393;49.378;8.686;2023-05-07T07:31:13;5.47;;;3.33;;
25479;SDS011;13393;49.378;8.686;2023-05-07T07:33:40;4.60;;;2.83;;
25479;SDS011;13393;49.378;8.686;2023-05-07T07:36:06;3.58;;;2.97;;
25479;SDS011;13393;49.378;8.686;2023-05-07T07:38:33;3.30;;;2.75;;
25479;SDS011;13393;49.378;8.686;2023-05-07T07:41:01;4.07;;;2.97;;
25479;SDS011;13393;49.378;8.686;2023-05-07T07:43:27;3.08;;;2.83;;
25479;SDS011;13393;49.378;8.686;2023-05-07T07:45:54;4.63;;;3.05;;
25479;SDS011;13393;49.378;8.686;2023-05-07T07:48:20;4.25;;;2.55;;
25479;SDS011;13393;49.378;8.686;2023-05-07T07:50:48;5.82;;;2.55;;
25479;SDS011;13393;49.378;8.686;2023-05-07T07:53:14;2.33;;;2.13;;
25479;SDS011;13393;49.378;8.686;2023-05-07T07:55:41;3.75;;;2.28;;
25479;SDS011;13393;49.378;8.686;2023-05-07T07:58:08;2.67;;;2.00;;
25479;SDS011;13393;49.378;8.686;2023-05-07T08:00:35;5.90;;;2.22;;
25479;SDS011;13393;49.378;8.686;2023-05-07T08:03:01;3.50;;;2.10;;
25479;SDS011;13393;49.378;8.686;2023-05-07T08:05:28;5.95;;;2.45;;
25479;SDS011;13393;49.378;8.686;2023-05-07T08:07:54;3.30;;;2.60;;
25479;SDS011;13393;49.378;8.686;2023-05-07T08:10:21;3.17;;;2.47;;
25479;SDS011;13393;49.378;8.686;2023-05-07T08:12:47;3.13;;;2.60;;
25479;SDS011;13393;49.378;8.686;2023-05-07T08:15:16;3.90;;;2.70;;
25479;SDS011;13393;49.378;8.686;2023-05-07T08:17:43;4.88;;;2.70;;
25479;SDS011;13393;49.378;8.686;2023-05-07T08:20:09;5.95;;;2.35;;
25479;SDS011;13393;49.378;8.686;2023-05-07T08:22:36;3.35;;;2.30;;
25479;SDS011;13393;49.378;8.686;2023-05-07T08:25:03;4.22;;;2.70;;
25479;SDS011;13393;49.378;8.686;2023-05-07T08:27:29;3.20;;;2.35;;
25479;SDS011;13393;49.378;8.686;2023-05-07T08:29:55;2.80;;;2.10;;
25479;SDS011;13393;49.378;8.686;2023-05-07T08:32:23;3.95;;;2.45;;
25479;SDS011;13393;49.378;8.686;2023-05-07T08:34:50;3.70;;;2.10;;
25479;SDS011;13393;49.378;8.686;2023-05-07T08:37:16;2.13;;;1.92;;
25479;SDS011;13393;49.378;8.686;2023-05-07T08:39:42;2.88;;;1.92;;
25479;SDS011;13393;49.378;8.686;2023-05-07T08:42:09;6.38;;;2.42;;
25479;SDS011;13393;49.378;8.686;2023-05-07T08:44:35;2.92;;;1.80;;
25479;SDS011;13393;49.378;8.686;2023-05-07T08:47:05;2.90;;;1.95;;
25479;SDS011;13393;49.378;8.686;2023-05-07T08:49:34;2.10;;;1.90;;
25479;SDS011;13393;49.378;8.686;2023-05-07T08:52:01;3.28;;;1.92;;
25479;SDS011;13393;49.378;8.686;2023-05-07T08:54:27;2.92;;;2.00;;
25479;SDS011;13393;49.378;8.686;2023-05-07T08:56:54;6.20;;;2.10;;
25479;SDS011;13393;49.378;8.686;2023-05-07T08:59:20;3.55;;;2.30;;
25479;SDS011;13393;49.378;8.686;2023-05-07T09:01:46;3.05;;;2.20;;
25479;SDS011;13393;49.378;8.686;2023-05-07T09:04:13;2.53;;;1.98;;
25479;SDS011;13393;49.378;8.686;2023-05-07T09:06:41;2.90;;;1.90;;
25479;SDS011;13393;49.378;8.686;2023-05-07T09:09:07;3.15;;;2.00;;
25479;SDS011;13393;49.378;8.686;2023-05-07T09:11:34;3.05;;;2.15;;
25479;SDS011;13393;49.378;8.686;2023-05-07T09:14:00;5.78;;;2.17;;
25479;SDS011;13393;49.378;8.686;2023-05-07T09:16:28;2.35;;;1.75;;
25479;SDS011;13393;49.378;8.686;2023-05-07T09:18:57;4.95;;;2.35;;
25479;SDS011;13393;49.378;8.686;2023-05-07T09:21:24;2.47;;;2.20;;
25479;SDS011;13393;49.378;8.686;2023-05-07T09:23:52;4.55;;;2.40;;
25479;SDS011;13393;49.378;8.686;2023-05-07T09:26:21;2.70;;;1.90;;
25479;SDS011;13393;49.378;8.686;2023-05-07T09:28:47;3.72;;;2.25;;
25479;SDS011;13393;49.378;8.686;2023-05-07T09:31:14;3.92;;;1.98;;
25479;SDS011;13393;49.378;8.686;2023-05-07T09:33:40;1.95;;;1.73;;
25479;SDS011;13393;49.378;8.686;2023-05-07T09:36:07;2.15;;;1.77;;
25479;SDS011;13393;49.378;8.686;2023-05-07T09:38:34;4.32;;;2.15;;
25479;SDS011;13393;49.378;8.686;2023-05-07T09:41:02;3.60;;;1.70;;
25479;SDS011;13393;49.378;8.686;2023-05-07T09:43:31;1.95;;;1.70;;
25479;SDS011;13393;49.378;8.686;2023-05-07T09:45:58;3.33;;;2.17;;
25479;SDS011;13393;49.378;8.686;2023-05-07T09:48:25;2.17;;;1.75;;
25479;SDS011;13393;49.378;8.686;2023-05-07T09:50:51;3.88;;;2.10;;
25479;SDS011;13393;49.378;8.686;2023-05-07T09:53:21;4.57;;;1.92;;
25479;SDS011;13393;49.378;8.686;2023-05-07T09:55:48;1.73;;;1.63;;
25479;SDS011;13393;49.378;8.686;2023-05-07T09:58:16;4.22;;;1.70;;
25479;SDS011;13393;49.378;8.686;2023-05-07T10:00:44;1.90;;;1.42;;
25479;SDS011;13393;49.378;8.686;2023-05-07T10:03:11;2.35;;;1.77;;
25479;SDS011;13393;49.378;8.686;2023-05-07T10:05:39;2.25;;;1.48;;
25479;SDS011;13393;49.378;8.686;2023-05-07T10:08:06;2.33;;;1.42;;
25479;SDS011;13393;49.378;8.686;2023-05-07T10:10:33;1.77;;;1.40;;
25479;SDS011;13393;49.378;8.686;2023-05-07T10:12:59;1.95;;;1.70;;
25479;SDS011;13393;49.378;8.686;2023-05-07T10:15:28;2.63;;;1.60;;
25479;SDS011;13393;49.378;8.686;2023-05-07T10:17:55;6.13;;;1.50;;
25479;SDS011;13393;49.378;8.686;2023-05-07T10:20:22;1.92;;;1.50;;
25479;SDS011;13393;49.378;8.686;2023-05-07T10:22:49;1.70;;;1.60;;
25479;SDS011;13393;49.378;8.686;2023-05-07T10:25:16;2.85;;;1.50;;
25479;SDS011;13393;49.378;8.686;2023-05-07T10:27:44;1.58;;;1.20;;
25479;SDS011;13393;49.378;8.686;2023-05-07T10:30:15;2.28;;;1.45;;
25479;SDS011;13393;49.378;8.686;2023-05-07T10:32:48;3.97;;;2.30;;
25479;SDS011;13393;49.378;8.686;2023-05-07T10:35:16;1.75;;;1.50;;
25479;SDS011;13393;49.378;8.686;2023-05-07T10:37:43;2.70;;;1.70;;
25479;SDS011;13393;49.378;8.686;2023-05-07T10:40:11;1.70;;;1.48;;
25479;SDS011;13393;49.378;8.686;2023-05-07T10:42:38;2.67;;;1.60;;
25479;SDS011;13393;49.378;8.686;2023-05-07T10:45:11;5.57;;;1.52;;
25479;SDS011;13393;49.378;8.686;2023-05-07T10:47:44;2.97;;;1.40;;
25479;SDS011;13393;49.378;8.686;2023-05-07T10:50:32;2.90;;;1.35;;
25479;SDS011;13393;49.378;8.686;2023-05-07T10:55:43;2.85;;;1.20;;
25479;SDS011;13393;49.378;8.686;2023-05-07T10:58:22;2.15;;;1.60;;
25479;SDS011;13393;49.378;8.686;2023-05-07T11:00:49;2.17;;;1.27;;
25479;SDS011;13393;49.378;8.686;2023-05-07T11:03:16;1.42;;;1.20;;
25479;SDS011;13393;49.378;8.686;2023-05-07T11:05:44;1.98;;;1.10;;
25479;SDS011;13393;49.378;8.686;2023-05-07T11:08:10;2.50;;;1.40;;
25479;SDS011;13393;49.378;8.686;2023-05-07T11:10:52;3.90;;;1.90;;
25479;SDS011;13393;49.378;8.686;2023-05-07T11:16:01;3.92;;;1.30;;
25479;SDS011;13393;49.378;8.686;2023-05-07T11:18:27;2.95;;;1.30;;
25479;SDS011;13393;49.378;8.686;2023-05-07T11:21:13;1.83;;;1.30;;
25479;SDS011;13393;49.378;8.686;2023-05-07T11:26:45;1.50;;;1.08;;
25479;SDS011;13393;49.378;8.686;2023-05-07T11:29:12;3.40;;;1.42;;
25479;SDS011;13393;49.378;8.686;2023-05-07T11:31:39;1.45;;;1.17;;
25479;SDS011;13393;49.378;8.686;2023-05-07T11:34:06;2.15;;;1.17;;
25479;SDS011;13393;49.378;8.686;2023-05-07T11:36:34;2.13;;;1.17;;
25479;SDS011;13393;49.378;8.686;2023-05-07T11:39:01;1.23;;;1.00;;
25479;SDS011;13393;49.378;8.686;2023-05-07T11:41:34;1.58;;;1.20;;
25479;SDS011;13393;49.378;8.686;2023-05-07T11:44:02;1.33;;;1.10;;
25479;SDS011;13393;49.378;8.686;2023-05-07T11:46:28;1.75;;;1.15;;
25479;SDS011;13393;49.378;8.686;2023-05-07T11:48:55;2.17;;;1.30;;
25479;SDS011;13393;49.378;8.686;2023-05-07T11:51:22;1.92;;;1.33;;
25479;SDS011;13393;49.378;8.686;2023-05-07T11:53:50;1.52;;;1.40;;
25479;SDS011;13393;49.378;8.686;2023-05-07T11:56:16;2.50;;;1.33;;
25479;SDS011;13393;49.378;8.686;2023-05-07T11:58:43;2.95;;;1.42;;
25479;SDS011;13393;49.378;8.686;2023-05-07T12:01:11;2.00;;;1.50;;
25479;SDS011;13393;49.378;8.686;2023-05-07T12:03:39;3.92;;;1.50;;
25479;SDS011;13393;49.378;8.686;2023-05-07T12:06:07;2.25;;;1.60;;
25479;SDS011;13393;49.378;8.686;2023-05-07T12:08:35;1.98;;;1.60;;
25479;SDS011;13393;49.378;8.686;2023-05-07T12:11:03;1.92;;;1.45;;
25479;SDS011;13393;49.378;8.686;2023-05-07T12:13:32;2.90;;;1.40;;
25479;SDS011;13393;49.378;8.686;2023-05-07T12:15:59;1.70;;;1.60;;
25479;SDS011;13393;49.378;8.686;2023-05-07T12:18:28;1.88;;;1.30;;
25479;SDS011;13393;49.378;8.686;2023-05-07T12:20:55;2.63;;;1.33;;
25479;SDS011;13393;49.378;8.686;2023-05-07T12:23:21;2.80;;;1.77;;
25479;SDS011;13393;49.378;8.686;2023-05-07T12:25:48;1.75;;;1.45;;
25479;SDS011;13393;49.378;8.686;2023-05-07T12:28:16;2.90;;;1.38;;
25479;SDS011;13393;49.378;8.686;2023-05-07T12:30:43;1.85;;;1.48;;
25479;SDS011;13393;49.378;8.686;2023-05-07T12:33:10;2.08;;;1.58;;
25479;SDS011;13393;49.378;8.686;2023-05-07T12:35:37;1.63;;;1.33;;
25479;SDS011;13393;49.378;8.686;2023-05-07T12:38:06;2.80;;;1.65;;
25479;SDS011;13393;49.378;8.686;2023-05-07T12:40:36;2.63;;;1.63;;
25479;SDS011;13393;49.378;8.686;2023-05-07T12:43:03;2.33;;;1.50;;
25479;SDS011;13393;49.378;8.686;2023-05-07T12:45:31;4.97;;;1.38;;
25479;SDS011;13393;49.378;8.686;2023-05-07T12:48:00;2.28;;;1.20;;
25479;SDS011;13393;49.378;8.686;2023-05-07T12:50:30;1.95;;;1.42;;
25479;SDS011;13393;49.378;8.686;2023-05-07T12:52:57;4.50;;;1.40;;
25479;SDS011;13393;49.378;8.686;2023-05-07T12:55:23;2.00;;;1.35;;
25479;SDS011;13393;49.378;8.686;2023-05-07T12:57:50;1.40;;;1.30;;
25479;SDS011;13393;49.378;8.686;2023-05-07T13:00:16;2.40;;;1.40;;
25479;SDS011;13393;49.378;8.686;2023-05-07T13:02:44;3.55;;;1.40;;
25479;SDS011;13393;49.378;8.686;2023-05-07T13:05:11;2.53;;;1.45;;
25479;SDS011;13393;49.378;8.686;2023-05-07T13:07:37;1.40;;;1.30;;
25479;SDS011;13393;49.378;8.686;2023-05-07T13:10:04;2.08;;;1.50;;
25479;SDS011;13393;49.378;8.686;2023-05-07T13:12:30;1.25;;;1.15;;
25479;SDS011;13393;49.378;8.686;2023-05-07T13:14:57;2.80;;;1.40;;
25479;SDS011;13393;49.378;8.686;2023-05-07T13:17:24;1.30;;;1.20;;
25479;SDS011;13393;49.378;8.686;2023-05-07T13:19:51;1.58;;;1.30;;
25479;SDS011;13393;49.378;8.686;2023-05-07T13:22:18;1.65;;;1.52;;
25479;SDS011;13393;49.378;8.686;2023-05-07T13:24:44;1.80;;;1.20;;
25479;SDS011;13393;49.378;8.686;2023-05-07T13:27:10;2.80;;;1.52;;
25479;SDS011;13393;49.378;8.686;2023-05-07T13:29:37;1.90;;;1.48;;
25479;SDS011;13393;49.378;8.686;2023-05-07T13:32:03;1.65;;;1.55;;
25479;SDS011;13393;49.378;8.686;2023-05-07T13:34:30;1.70;;;1.30;;
25479;SDS011;13393;49.378;8.686;2023-05-07T13:36:57;5.15;;;1.50;;
25479;SDS011;13393;49.378;8.686;2023-05-07T13:39:24;1.58;;;1.30;;
25479;SDS011;13393;49.378;8.686;2023-05-07T13:41:50;3.28;;;1.40;;
25479;SDS011;13393;49.378;8.686;2023-05-07T13:44:16;1.30;;;1.20;;
25479;SDS011;13393;49.378;8.686;2023-05-07T13:46:43;3.00;;;1.77;;
25479;SDS011;13393;49.378;8.686;2023-05-07T13:49:09;1.52;;;1.42;;
25479;SDS011;13393;49.378;8.686;2023-05-07T13:51:37;1.98;;;1.30;;
25479;SDS011;13393;49.378;8.686;2023-05-07T13:54:05;1.77;;;1.30;;
25479;SDS011;13393;49.378;8.686;2023-05-07T13:56:31;2.63;;;1.40;;
25479;SDS011;13393;49.378;8.686;2023-05-07T13:58:58;2.30;;;1.42;;
25479;SDS011;13393;49.378;8.686;2023-05-07T14:01:25;4.35;;;1.52;;
25479;SDS011;13393;49.378;8.686;2023-05-07T14:03:52;1.17;;;1.17;;
25479;SDS011;13393;49.378;8.686;2023-05-07T14:06:18;3.78;;;1.50;;
25479;SDS011;13393;49.378;8.686;2023-05-07T14:08:44;1.65;;;1.38;;
25479;SDS011;13393;49.378;8.686;2023-05-07T14:11:12;1.77;;;1.60;;
25479;SDS011;13393;49.378;8.686;2023-05-07T14:13:38;1.63;;;1.45;;
25479;SDS011;13393;49.378;8.686;2023-05-07T14:16:05;3.90;;;1.50;;
25479;SDS011;13393;49.378;8.686;2023-05-07T14:18:31;2.50;;;1.40;;
25479;SDS011;13393;49.378;8.686;2023-05-07T14:20:58;1.55;;;1.45;;
25479;SDS011;13393;49.378;8.686;2023-05-07T14:23:25;1.75;;;1.30;;
25479;SDS011;13393;49.378;8.686;2023-05-07T14:25:52;6.13;;;1.70;;
25479;SDS011;13393;49.378;8.686;2023-05-07T14:28:19;6.57;;;1.55;;
25479;SDS011;13393;49.378;8.686;2023-05-07T14:30:46;11.30;;;2.22;;
25479;SDS011;13393;49.378;8.686;2023-05-07T14:33:12;7.53;;;1.90;;
25479;SDS011;13393;49.378;8.686;2023-05-07T14:35:39;5.90;;;2.03;;
25479;SDS011;13393;49.378;8.686;2023-05-07T14:38:05;4.25;;;1.45;;
25479;SDS011;13393;49.378;8.686;2023-05-07T14:40:31;3.30;;;1.45;;
25479;SDS011;13393;49.378;8.686;2023-05-07T14:42:58;2.00;;;1.20;;
25479;SDS011;13393;49.378;8.686;2023-05-07T14:45:26;3.42;;;1.38;;
25479;SDS011;13393;49.378;8.686;2023-05-07T14:47:52;3.20;;;1.30;;
25479;SDS011;13393;49.378;8.686;2023-05-07T14:50:19;7.40;;;2.08;;
25479;SDS011;13393;49.378;8.686;2023-05-07T14:52:45;6.25;;;2.30;;
25479;SDS011;13393;49.378;8.686;2023-05-07T14:55:12;6.00;;;1.90;;